createdAt,value
2022-11-28T08:12:08.392Z,61.88
2022-11-28T08:12:13.871Z,97.17
2022-11-28T08:13:13.841Z,70.36
2022-11-28T08:14:13.826Z,57.23
2022-11-28T08:15:13.843Z,49.59
2022-11-28T08:16:13.868Z,45.22
2022-11-28T08:17:13.794Z,42.41
2022-11-28T08:18:13.792Z,40.75
2022-11-28T08:19:13.770Z,39.21
2022-11-28T08:20:13.762Z,38.67
2022-11-28T08:21:13.771Z,38.20
2022-11-28T08:22:13.778Z,38.13
2022-11-28T08:23:13.755Z,37.96
2022-11-28T08:24:13.734Z,38.13
2022-11-28T08:25:14.735Z,38.49
2022-11-28T08:26:13.702Z,38.63
2022-11-28T08:27:13.710Z,38.96
2022-11-28T08:28:13.722Z,39.29
2022-11-28T08:29:13.722Z,39.55
2022-11-28T08:30:13.685Z,39.85
2022-11-28T08:31:13.757Z,40.04
2022-11-28T08:32:13.642Z,40.39
2022-11-28T08:33:13.645Z,40.63
2022-11-28T08:34:13.649Z,41.07
2022-11-28T08:35:13.806Z,41.31
2022-11-28T08:36:13.609Z,41.69
2022-11-28T08:37:13.616Z,42.19
2022-11-28T08:38:13.602Z,42.71
2022-11-28T08:39:29.027Z,42.89
2022-11-28T08:40:13.587Z,43.38
2022-11-28T08:41:13.563Z,43.56
2022-11-28T08:42:13.549Z,43.98
2022-11-28T08:43:13.556Z,44.03
2022-11-28T08:44:13.540Z,44.40
2022-11-28T08:45:13.577Z,44.64
2022-11-28T08:46:13.732Z,44.59
2022-11-28T08:47:13.540Z,44.69
2022-11-28T08:48:13.513Z,45.52
2022-11-28T08:49:13.521Z,45.77
2022-11-28T08:50:13.475Z,46.28
2022-11-28T08:51:13.471Z,46.75
2022-11-28T08:52:13.470Z,47.06
2022-11-28T08:53:18.660Z,47.46
2022-11-28T08:54:13.480Z,47.79
2022-11-28T08:55:13.454Z,48.09
2022-11-28T08:56:13.415Z,48.21
2022-11-28T08:57:13.507Z,48.15
2022-11-28T08:58:13.413Z,48.15
2022-11-28T08:59:13.389Z,48.26
2022-11-28T09:00:13.404Z,48.15
2022-11-28T09:01:13.460Z,48.54
2022-11-28T09:02:13.353Z,48.80
2022-11-28T09:03:13.352Z,49.00
2022-11-28T09:04:13.401Z,49.00
2022-11-28T09:05:13.335Z,49.03
2022-11-28T09:06:13.340Z,49.17
2022-11-28T09:07:13.473Z,49.50
2022-11-28T09:08:13.301Z,49.76
2022-11-28T09:09:13.307Z,49.50
2022-11-28T09:10:13.506Z,49.47
2022-11-28T09:11:13.270Z,49.12
2022-11-28T09:12:13.263Z,49.23
2022-11-28T09:13:13.272Z,49.32
2022-11-28T09:14:13.255Z,49.82
2022-11-28T09:15:13.248Z,49.53
2022-11-28T09:16:13.242Z,49.76
2022-11-28T09:17:13.481Z,49.85
2022-11-28T09:18:13.210Z,49.97
2022-11-28T09:19:13.205Z,50.15
2022-11-28T09:20:13.195Z,50.09
2022-11-28T09:21:13.183Z,50.12
2022-11-28T09:22:13.170Z,49.76
2022-11-28T09:23:13.175Z,49.47
2022-11-28T09:24:13.150Z,49.35
2022-11-28T09:25:13.152Z,49.62
2022-11-28T09:26:13.144Z,49.73
2022-11-28T09:27:13.191Z,50.19
2022-11-28T09:28:13.109Z,50.37
2022-11-28T09:29:13.115Z,50.67
2022-11-28T09:30:13.096Z,50.92
2022-11-28T09:31:13.164Z,50.99
2022-11-28T09:32:13.092Z,51.05
2022-11-28T09:33:13.082Z,51.49
2022-11-28T09:34:13.055Z,51.59
2022-11-28T09:35:13.051Z,51.88
2022-11-28T09:36:13.051Z,52.30
2022-11-28T09:37:13.032Z,52.93
2022-11-28T09:38:13.016Z,52.80
2022-11-28T09:39:13.023Z,52.87
2022-11-28T09:40:13.953Z,53.07
2022-11-28T09:41:12.997Z,53.00
2022-11-28T09:42:13.004Z,52.80
2022-11-28T09:43:12.975Z,52.76
2022-11-28T09:44:12.975Z,52.43
2022-11-28T09:45:12.979Z,52.63
2022-11-28T09:46:13.030Z,52.43
2022-11-28T09:47:12.923Z,52.76
2022-11-28T09:48:12.912Z,53.31
2022-11-28T09:49:12.906Z,53.51
2022-11-28T09:50:12.910Z,53.62
2022-11-28T09:51:12.913Z,53.86
2022-11-28T09:52:12.928Z,53.55
2022-11-28T09:53:12.868Z,53.55
2022-11-28T09:54:12.875Z,53.89
2022-11-28T09:55:12.873Z,53.58
2022-11-28T09:56:12.858Z,53.55
2022-11-28T09:57:12.931Z,53.38
2022-11-28T09:58:12.817Z,53.58
2022-11-28T09:59:12.810Z,53.38
2022-11-28T10:00:12.811Z,53.14
2022-11-28T10:01:12.829Z,53.34
2022-11-28T10:02:12.796Z,53.48
2022-11-28T10:03:12.869Z,53.58
2022-11-28T10:04:12.903Z,53.34
2022-11-28T10:05:12.790Z,53.48
2022-11-28T10:06:12.746Z,53.86
2022-11-28T10:07:12.775Z,53.41
2022-11-28T10:08:12.726Z,53.24
2022-11-28T10:09:12.748Z,53.51
2022-11-28T10:10:12.702Z,53.96
2022-11-28T10:11:12.690Z,54.17
2022-11-28T10:12:12.716Z,54.39
2022-11-28T10:13:12.667Z,54.39
2022-11-28T10:14:12.679Z,54.46
2022-11-28T10:15:12.678Z,55.00
2022-11-28T10:16:12.713Z,55.07
2022-11-28T10:17:12.698Z,54.93
2022-11-28T10:18:12.628Z,54.67
2022-11-28T10:19:31.692Z,55.29
2022-11-28T10:20:12.641Z,55.44
2022-11-28T10:21:12.629Z,55.85
2022-11-28T10:22:12.580Z,56.11
2022-11-28T10:23:12.579Z,56.30
2022-11-28T10:24:12.574Z,57.12
2022-11-28T10:25:12.572Z,57.23
2022-11-28T10:26:12.549Z,57.59
2022-11-28T10:27:12.530Z,57.43
2022-11-28T10:28:12.542Z,57.59
2022-11-28T10:29:12.514Z,57.83
2022-11-28T10:30:12.529Z,57.31
2022-11-28T10:31:12.531Z,57.12
2022-11-28T10:32:12.527Z,56.76
2022-11-28T10:33:12.474Z,56.53
2022-11-28T10:34:12.472Z,56.49
2022-11-28T10:35:12.451Z,56.96
2022-11-28T10:36:12.464Z,57.35
2022-11-28T10:37:12.429Z,57.91
2022-11-28T10:38:12.431Z,58.07
2022-11-28T10:39:12.431Z,58.32
2022-11-28T10:40:12.413Z,58.36
2022-11-28T10:41:12.396Z,58.94
2022-11-28T10:42:13.088Z,59.36
2022-11-28T10:43:12.413Z,59.28
2022-11-28T10:44:15.834Z,59.15
2022-11-28T10:45:12.368Z,58.36
2022-11-28T10:46:12.435Z,58.20
2022-11-28T10:47:12.331Z,57.19
2022-11-28T10:48:38.617Z,56.46
2022-11-28T10:49:12.339Z,56.49
2022-11-28T10:50:12.309Z,56.73
2022-11-28T10:51:12.372Z,56.30
2022-11-28T10:52:12.297Z,57.00
2022-11-28T10:53:12.273Z,57.19
2022-11-28T10:54:12.270Z,56.42
2022-11-28T10:55:12.278Z,56.38
2022-11-28T10:56:12.256Z,56.65
2022-11-28T10:57:12.251Z,56.57
2022-11-28T10:58:12.256Z,56.53
2022-11-28T10:59:12.250Z,56.73
2022-11-28T11:00:12.237Z,56.80
2022-11-28T11:01:12.243Z,56.76
2022-11-28T11:02:12.198Z,56.49
2022-11-28T11:03:12.183Z,56.49
2022-11-28T11:04:12.215Z,56.80
2022-11-28T11:05:12.199Z,56.88
2022-11-28T11:06:12.154Z,56.84
2022-11-28T11:07:17.646Z,56.69
2022-11-28T11:08:12.316Z,56.65
2022-11-28T11:09:12.126Z,56.53
2022-11-28T11:10:12.114Z,56.49
2022-11-28T11:11:12.117Z,56.46
2022-11-28T11:12:12.096Z,56.53
2022-11-28T11:13:12.086Z,56.80
2022-11-28T11:14:12.095Z,57.23
2022-11-28T11:15:12.061Z,57.12
2022-11-28T11:16:12.137Z,57.19
2022-11-28T11:17:12.041Z,57.71
2022-11-28T11:18:12.042Z,57.67
2022-11-28T11:19:12.032Z,57.04
2022-11-28T11:20:12.028Z,57.08
2022-11-28T11:21:12.031Z,57.15
2022-11-28T11:22:12.002Z,57.08
2022-11-28T11:23:11.981Z,57.04
2022-11-28T11:24:11.991Z,57.12
2022-11-28T11:25:11.984Z,57.08
2022-11-28T11:26:11.966Z,56.46
2022-11-28T11:27:11.984Z,55.78
2022-11-28T11:28:11.947Z,55.18
2022-11-28T11:29:11.935Z,55.51
2022-11-28T11:30:11.924Z,56.11
2022-11-28T11:31:11.932Z,56.42
2022-11-28T11:32:11.909Z,56.96
2022-11-28T11:33:11.912Z,57.51
2022-11-28T11:34:11.884Z,58.90
2022-11-28T11:35:11.910Z,60.18
2022-11-28T11:36:11.900Z,60.53
2022-11-28T11:37:11.850Z,61.47
2022-11-28T11:38:11.845Z,62.62
2022-11-28T11:39:11.827Z,63.00
2022-11-28T11:40:11.829Z,63.97
2022-11-28T11:41:11.819Z,64.72
2022-11-28T11:42:11.829Z,64.97
2022-11-28T11:43:11.790Z,65.74
2022-11-28T11:44:11.796Z,66.86
2022-11-28T11:45:11.776Z,67.62
2022-11-28T11:46:11.828Z,68.11
2022-11-28T11:47:11.755Z,67.73
2022-11-28T11:48:11.748Z,68.00
2022-11-28T11:49:11.740Z,66.69
2022-11-28T11:50:11.724Z,66.69
2022-11-28T11:51:11.709Z,66.96
2022-11-28T11:52:11.705Z,67.29
2022-11-28T11:53:11.695Z,67.62
2022-11-28T11:54:11.682Z,68.17
2022-11-28T11:55:11.763Z,69.02
2022-11-28T11:56:11.709Z,69.66
2022-11-28T11:57:32.070Z,70.66
2022-11-28T11:58:11.678Z,71.27
2022-11-28T11:59:11.637Z,72.51
2022-11-28T12:00:11.646Z,73.21
2022-11-28T12:01:11.627Z,74.13
2022-11-28T12:02:11.625Z,73.80
2022-11-28T12:03:11.692Z,74.93
2022-11-28T12:04:37.080Z,76.17
2022-11-28T12:05:11.585Z,78.10
2022-11-28T12:06:15.409Z,78.84
2022-11-28T12:07:11.560Z,80.44
2022-11-28T12:08:11.590Z,81.39
2022-11-28T12:09:11.531Z,81.39
2022-11-28T12:10:11.525Z,81.23
2022-11-28T12:11:11.549Z,81.55
2022-11-28T12:12:11.532Z,83.60
2022-11-28T12:13:11.508Z,83.43
2022-11-28T12:14:11.506Z,82.76
2022-11-28T12:15:11.491Z,83.10
2022-11-28T12:16:11.513Z,82.43
2022-11-28T12:17:40.532Z,82.27
2022-11-28T12:29:23.029Z,81.31
2022-11-28T12:29:28.479Z,80.05
2022-11-28T12:30:28.470Z,74.19
2022-11-28T12:31:28.495Z,70.30
2022-11-28T12:32:28.450Z,69.31
2022-11-28T12:33:28.459Z,70.24
2022-11-28T12:34:28.444Z,69.19
2022-11-28T12:35:28.437Z,69.83
2022-11-28T12:36:28.406Z,69.95
2022-11-28T12:37:42.013Z,68.79
2022-11-28T12:38:28.442Z,68.90
2022-11-28T12:39:28.377Z,69.08
2022-11-28T12:40:28.366Z,69.60
2022-11-28T12:41:32.415Z,69.89
2022-11-28T12:42:28.347Z,69.54
2022-11-28T12:43:28.346Z,69.31
2022-11-28T12:44:28.349Z,68.00
2022-11-28T12:45:28.315Z,65.74
2022-11-28T12:46:28.437Z,64.27
2022-11-28T12:47:28.298Z,62.77
2022-11-28T12:48:28.290Z,62.11
2022-11-28T12:49:28.287Z,62.34
2022-11-28T12:50:28.300Z,62.02
2022-11-28T12:51:28.288Z,61.28
2022-11-28T12:52:28.249Z,61.01
2022-11-28T12:53:28.237Z,61.06
2022-11-28T12:54:28.250Z,60.70
2022-11-28T12:55:28.220Z,60.13
2022-11-28T12:56:28.234Z,59.66
2022-11-28T12:57:28.196Z,59.70
2022-11-28T12:58:28.189Z,59.53
2022-11-28T12:59:28.218Z,59.19
2022-11-28T13:00:28.188Z,59.19
2022-11-28T13:01:28.237Z,59.06
2022-11-28T13:02:28.344Z,59.06
2022-11-28T13:03:28.208Z,59.15
2022-11-28T13:04:28.132Z,59.36
2022-11-28T13:05:28.122Z,59.19
2022-11-28T13:06:28.127Z,59.15
2022-11-28T13:07:28.136Z,59.32
2022-11-28T13:08:28.109Z,59.28
2022-11-28T13:09:28.084Z,59.02
2022-11-28T13:10:28.070Z,59.28
2022-11-28T13:11:28.062Z,59.23
2022-11-28T13:12:28.047Z,60.13
2022-11-28T13:13:28.069Z,60.31
2022-11-28T13:14:28.156Z,60.75
2022-11-28T13:15:28.131Z,61.19
2022-11-28T13:16:28.051Z,61.33
2022-11-28T13:17:28.005Z,61.24
2022-11-28T13:18:28.005Z,61.19
2022-11-28T13:19:27.977Z,61.79
2022-11-28T13:20:27.981Z,61.47
2022-11-28T13:21:27.992Z,60.84
2022-11-28T13:22:28.011Z,60.57
2022-11-28T13:23:27.936Z,60.75
2022-11-28T13:24:27.938Z,60.53
2022-11-28T13:25:27.919Z,60.62
2022-11-28T13:26:27.930Z,60.44
2022-11-28T13:27:27.930Z,60.13
2022-11-28T13:28:27.895Z,59.62
2022-11-28T13:29:27.941Z,59.96
2022-11-28T13:30:27.877Z,59.53
2022-11-28T13:31:28.011Z,59.70
2022-11-28T13:32:27.860Z,60.00
2022-11-28T13:33:27.845Z,60.31
2022-11-28T13:34:27.825Z,60.04
2022-11-28T13:35:27.826Z,60.09
2022-11-28T13:38:36.912Z,60.44
2022-11-28T13:39:27.790Z,59.83
2022-11-28T13:40:27.783Z,60.13
2022-11-28T13:42:03.423Z,61.06
2022-11-28T13:43:27.765Z,61.33
2022-11-28T13:44:27.740Z,61.15
2022-11-28T13:45:31.983Z,60.70
2022-11-28T13:46:27.757Z,60.35
2022-11-28T13:47:27.842Z,60.48
2022-11-28T13:48:49.824Z,60.53
2022-11-28T13:49:27.688Z,60.48
2022-11-28T13:50:27.683Z,60.44
2022-11-28T13:51:31.577Z,60.39
2022-11-28T13:52:27.651Z,59.44
2022-11-28T13:53:27.649Z,59.11
2022-11-28T13:54:27.645Z,59.19
2022-11-28T13:55:27.670Z,59.23
2022-11-28T13:56:27.634Z,58.65
2022-11-28T13:57:27.628Z,57.87
2022-11-28T13:58:28.452Z,57.67
2022-11-28T13:59:27.623Z,57.00
2022-11-28T14:00:27.975Z,56.69
2022-11-28T14:01:27.711Z,56.38
2022-11-28T14:02:27.726Z,56.42
2022-11-28T14:03:27.630Z,55.85
2022-11-28T14:04:27.551Z,55.78
2022-11-28T14:05:27.538Z,55.85
2022-11-28T14:06:27.524Z,55.48
2022-11-28T14:07:27.601Z,55.33
2022-11-28T14:08:27.503Z,55.33
2022-11-28T14:09:27.483Z,55.04
2022-11-28T14:10:27.485Z,54.46
2022-11-28T14:11:28.156Z,54.46
2022-11-28T14:12:27.475Z,54.53
2022-11-28T14:13:27.523Z,54.82
2022-11-28T14:14:27.447Z,54.35
2022-11-28T14:15:27.442Z,54.10
2022-11-28T14:16:27.512Z,54.39
2022-11-28T14:17:27.413Z,54.60
2022-11-28T14:19:27.399Z,54.64
2022-11-28T14:20:27.378Z,54.53
2022-11-28T14:21:27.386Z,54.35
2022-11-28T14:22:27.396Z,54.42
2022-11-28T14:23:27.755Z,54.46
2022-11-28T14:24:27.333Z,54.28
2022-11-28T14:25:27.354Z,54.07
2022-11-28T14:26:27.345Z,54.03
2022-11-28T14:27:27.316Z,54.00
2022-11-28T14:28:27.304Z,54.14
2022-11-28T14:29:27.287Z,54.35
2022-11-28T14:30:27.301Z,54.17
2022-11-28T14:31:27.374Z,53.96
2022-11-28T14:32:31.318Z,54.07
2022-11-28T14:33:27.264Z,54.17
2022-11-28T14:34:27.247Z,54.10
2022-11-28T14:35:27.229Z,53.86
2022-11-28T14:36:27.227Z,54.07
2022-11-28T14:37:27.238Z,53.96
2022-11-28T14:38:27.224Z,54.03
2022-11-28T14:39:27.209Z,53.89
2022-11-28T14:40:27.185Z,53.86
2022-11-28T14:41:27.174Z,54.10
2022-11-28T14:43:27.176Z,54.71
2022-11-28T14:44:27.177Z,55.33
2022-11-28T14:45:27.217Z,55.62
2022-11-28T14:46:27.269Z,56.15
2022-11-28T14:47:27.150Z,56.46
2022-11-28T14:48:27.158Z,56.61
2022-11-28T14:49:27.096Z,56.88
2022-11-28T14:50:27.089Z,56.92
2022-11-28T14:51:27.088Z,56.88
2022-11-28T14:52:42.381Z,56.76
2022-11-28T14:53:27.067Z,56.53
2022-11-28T14:54:27.046Z,56.34
2022-11-28T14:55:27.048Z,56.42
2022-11-28T14:56:27.030Z,56.26
2022-11-28T14:57:27.024Z,56.46
2022-11-28T14:58:27.017Z,56.42
2022-11-28T14:59:27.030Z,56.49
2022-11-28T15:00:27.003Z,56.53
2022-11-28T15:01:27.282Z,56.73
2022-11-28T15:02:27.094Z,56.61
2022-11-28T15:03:27.109Z,56.42
2022-11-28T15:04:26.955Z,56.57
2022-11-28T15:05:26.985Z,56.42
2022-11-28T15:06:26.928Z,56.15
2022-11-28T15:07:26.966Z,56.11
2022-11-28T15:08:26.913Z,55.89
2022-11-28T15:09:26.903Z,55.37
2022-11-28T15:10:26.914Z,55.11
2022-11-28T15:11:26.897Z,55.07
2022-11-28T15:12:26.876Z,55.00
2022-11-28T15:13:26.865Z,54.67
2022-11-28T15:14:26.867Z,54.53
2022-11-28T15:15:26.844Z,54.32
2022-11-28T15:16:26.912Z,54.28
2022-11-28T15:17:26.834Z,54.21
2022-11-28T15:18:26.805Z,54.14
2022-11-28T15:19:26.806Z,54.39
2022-11-28T15:20:26.797Z,54.10
2022-11-28T15:21:26.792Z,54.07
2022-11-28T15:22:26.796Z,53.72
2022-11-28T15:23:26.763Z,53.44
2022-11-28T15:24:26.753Z,53.41
2022-11-28T15:25:26.759Z,53.24
2022-11-28T15:26:26.746Z,53.55
2022-11-28T15:27:26.753Z,53.51
2022-11-28T15:28:26.723Z,53.62
2022-11-28T15:29:26.722Z,53.65
2022-11-28T15:30:26.973Z,53.76
2022-11-28T15:31:26.757Z,53.34
2022-11-28T15:32:26.693Z,53.20
2022-11-28T15:33:26.664Z,52.97
2022-11-28T15:34:26.677Z,52.90
2022-11-28T15:35:26.669Z,52.80
2022-11-28T15:36:26.632Z,52.60
2022-11-28T15:37:26.630Z,52.10
2022-11-28T15:38:26.632Z,51.88
2022-11-28T15:39:26.650Z,51.30
2022-11-28T15:40:26.599Z,51.17
2022-11-28T15:41:26.590Z,50.67
2022-11-28T15:42:26.572Z,50.58
2022-11-28T15:43:26.654Z,50.43
2022-11-28T15:44:26.569Z,50.22
2022-11-28T15:45:26.567Z,50.19
2022-11-28T15:46:26.630Z,50.28
2022-11-28T15:47:26.559Z,50.00
2022-11-28T15:48:26.510Z,49.85
2022-11-28T15:49:26.525Z,49.76
2022-11-28T15:50:26.525Z,49.44
2022-11-28T15:51:26.508Z,49.56
2022-11-28T15:52:26.482Z,49.94
2022-11-28T15:53:26.465Z,50.37
2022-11-28T15:54:26.460Z,50.61
2022-11-28T15:55:26.461Z,50.74
2022-11-28T15:56:26.448Z,50.55
2022-11-28T15:57:26.430Z,50.49
2022-11-28T15:58:26.421Z,50.52
2022-11-28T15:59:26.428Z,50.89
2022-11-28T16:00:26.394Z,50.86
2022-11-28T16:01:26.493Z,50.58
2022-11-28T16:02:26.461Z,50.55
2022-11-28T16:03:26.502Z,50.52
2022-11-28T16:04:26.838Z,50.31
2022-11-28T16:05:27.532Z,50.37
2022-11-28T16:06:26.671Z,50.58
2022-11-28T16:07:27.416Z,50.43
2022-11-28T16:08:26.433Z,50.28
2022-11-28T16:09:26.389Z,50.28
2022-11-28T16:10:26.352Z,50.37
2022-11-28T16:11:26.352Z,50.34
2022-11-28T16:12:26.367Z,50.46
2022-11-28T16:13:26.340Z,50.46
2022-11-28T16:14:26.345Z,50.43
2022-11-28T16:15:26.309Z,50.55
2022-11-28T16:16:26.375Z,50.64
2022-11-28T16:17:26.288Z,50.86
2022-11-28T16:18:26.300Z,51.21
2022-11-28T16:19:26.344Z,51.24
2022-11-28T16:20:26.264Z,51.59
2022-11-28T16:21:26.265Z,51.91
2022-11-28T16:22:26.258Z,51.72
2022-11-28T16:23:26.224Z,52.07
2022-11-28T16:24:26.240Z,51.75
2022-11-28T16:25:26.207Z,51.62
2022-11-28T16:26:26.207Z,51.40
2022-11-28T16:27:26.226Z,51.62
2022-11-28T16:28:26.212Z,51.88
2022-11-28T16:29:30.523Z,52.20
2022-11-28T16:30:26.182Z,52.01
2022-11-28T16:31:26.223Z,51.88
2022-11-28T16:32:26.149Z,51.94
2022-11-28T16:33:26.155Z,51.65
2022-11-28T16:34:26.210Z,51.65
2022-11-28T16:35:26.167Z,51.55
2022-11-28T16:36:26.104Z,51.62
2022-11-28T16:37:26.090Z,51.65
2022-11-28T16:38:26.088Z,51.30
2022-11-28T16:39:26.097Z,51.30
2022-11-28T16:40:26.076Z,51.02
2022-11-28T16:41:26.052Z,51.02
2022-11-28T16:42:26.042Z,51.36
2022-11-28T16:43:26.046Z,51.78
2022-11-28T16:44:26.035Z,52.24
2022-11-28T16:45:26.089Z,52.04
2022-11-28T16:46:25.999Z,52.24
2022-11-28T16:47:26.001Z,52.33
2022-11-28T16:48:25.997Z,52.33
2022-11-28T16:49:25.992Z,52.70
2022-11-28T16:50:26.002Z,52.60
2022-11-28T16:51:25.971Z,52.56
2022-11-28T16:52:25.952Z,52.53
2022-11-28T16:53:25.938Z,52.27
2022-11-28T16:54:25.927Z,52.30
2022-11-28T16:55:25.911Z,52.17
2022-11-28T16:56:25.955Z,52.43
2022-11-28T16:57:30.245Z,52.17
2022-11-28T16:58:25.893Z,52.04
2022-11-28T16:59:25.884Z,52.04
2022-11-28T17:00:25.891Z,51.72
2022-11-28T17:01:25.916Z,51.33
2022-11-28T17:02:25.942Z,51.17
2022-11-28T17:03:25.847Z,50.80
2022-11-28T17:04:25.900Z,50.58
2022-11-28T17:05:25.841Z,50.37
2022-11-28T17:06:25.820Z,50.31
2022-11-28T17:07:25.829Z,50.00
2022-11-28T17:08:30.270Z,49.38
2022-11-28T17:09:25.827Z,49.09
2022-11-28T17:10:25.832Z,48.63
2022-11-28T17:11:25.772Z,48.51
2022-11-28T17:12:25.746Z,48.04
2022-11-28T17:13:25.761Z,48.15
2022-11-28T17:14:25.763Z,48.15
2022-11-28T17:15:25.741Z,48.40
2022-11-28T17:16:25.785Z,48.89
2022-11-28T17:17:25.701Z,49.12
2022-11-28T17:18:25.688Z,49.32
2022-11-28T17:19:25.697Z,49.41
2022-11-28T17:20:25.725Z,49.85
2022-11-28T17:21:25.674Z,49.85
2022-11-28T17:22:25.670Z,49.82
2022-11-28T17:23:25.640Z,49.53
2022-11-28T17:24:25.634Z,49.12
2022-11-28T17:25:25.640Z,48.66
2022-11-28T17:26:25.641Z,47.93
2022-11-28T17:27:25.617Z,46.90
2022-11-28T17:28:29.101Z,46.59
2022-11-28T17:29:25.613Z,46.49
2022-11-28T17:30:25.606Z,46.38
2022-11-28T17:31:25.597Z,46.23
2022-11-28T17:32:25.551Z,46.28
2022-11-28T17:33:25.555Z,46.17
2022-11-28T17:34:25.527Z,46.33
2022-11-28T17:35:25.544Z,46.69
2022-11-28T17:36:25.546Z,46.75
2022-11-28T17:37:25.526Z,46.90
2022-11-28T17:38:25.507Z,47.17
2022-11-28T17:39:25.487Z,47.19
2022-11-28T17:40:25.501Z,47.49
2022-11-28T17:41:25.473Z,47.74
2022-11-28T17:42:25.455Z,47.98
2022-11-28T17:43:25.448Z,48.04
2022-11-28T17:44:25.462Z,48.21
2022-11-28T17:45:25.544Z,48.32
2022-11-28T17:46:25.427Z,48.51
2022-11-28T17:47:25.414Z,48.63
2022-11-28T17:48:25.401Z,48.77
2022-11-28T17:49:25.445Z,48.89
2022-11-28T17:50:25.384Z,48.63
2022-11-28T17:51:25.397Z,48.57
2022-11-28T17:52:25.367Z,48.46
2022-11-28T17:53:25.378Z,48.43
2022-11-28T17:54:25.388Z,48.18
2022-11-28T17:55:25.332Z,47.96
2022-11-28T17:56:25.330Z,47.74
2022-11-28T17:57:25.333Z,47.68
2022-11-28T17:58:25.300Z,47.30
2022-11-28T17:59:25.294Z,47.27
2022-11-28T18:00:25.288Z,47.14
2022-11-28T18:01:25.327Z,47.49
2022-11-28T18:02:25.309Z,47.60
2022-11-28T18:03:25.249Z,47.54
2022-11-28T18:04:25.255Z,47.41
2022-11-28T18:05:25.236Z,47.17
2022-11-28T18:06:25.225Z,47.19
2022-11-28T18:07:25.260Z,47.17
2022-11-28T18:08:25.230Z,47.14
2022-11-28T18:09:25.196Z,47.06
2022-11-28T18:10:25.189Z,46.90
2022-11-28T18:11:25.173Z,46.90
2022-11-28T18:12:25.195Z,46.96
2022-11-28T18:13:25.163Z,46.80
2022-11-28T18:14:25.170Z,46.69
2022-11-28T18:15:25.130Z,46.33
2022-11-28T18:16:25.169Z,46.38
2022-11-28T18:17:25.134Z,46.59
2022-11-28T18:18:25.106Z,47.06
2022-11-28T18:19:25.099Z,47.35
2022-11-28T18:20:25.106Z,47.71
2022-11-28T18:21:25.097Z,48.21
2022-11-28T18:22:25.083Z,48.69
2022-11-28T18:23:25.066Z,48.51
2022-11-28T18:24:25.055Z,48.66
2022-11-28T18:25:25.062Z,48.49
2022-11-28T18:26:25.046Z,48.35
2022-11-28T18:27:25.019Z,48.15
2022-11-28T18:28:25.012Z,47.96
2022-11-28T18:29:25.025Z,47.71
2022-11-28T18:30:24.995Z,47.63
2022-11-28T18:31:25.062Z,47.79
2022-11-28T18:32:24.968Z,47.52
2022-11-28T18:33:24.956Z,47.33
2022-11-28T18:34:24.952Z,47.33
2022-11-28T18:35:24.967Z,47.25
2022-11-28T18:36:24.933Z,47.03
2022-11-28T18:37:24.922Z,47.01
2022-11-28T18:38:24.917Z,46.69
2022-11-28T18:39:24.905Z,46.38
2022-11-28T18:40:24.915Z,46.54
2022-11-28T18:41:24.928Z,46.33
2022-11-28T18:42:24.880Z,46.23
2022-11-28T18:43:24.857Z,46.17
2022-11-28T18:44:24.858Z,45.97
2022-11-28T18:45:24.845Z,46.38
2022-11-28T18:46:24.860Z,46.23
2022-11-28T18:47:24.885Z,46.38
2022-11-28T18:48:24.836Z,46.69
2022-11-28T18:49:24.798Z,46.69
2022-11-28T18:50:24.818Z,46.85
2022-11-28T18:51:24.789Z,46.98
2022-11-28T18:52:24.776Z,46.93
2022-11-28T18:53:24.784Z,47.38
2022-11-28T18:54:24.772Z,47.35
2022-11-28T18:55:24.768Z,47.38
2022-11-28T18:56:24.734Z,47.30
2022-11-28T18:57:24.726Z,47.11
2022-11-28T18:58:24.737Z,47.06
2022-11-28T18:59:24.705Z,46.90
2022-11-28T19:00:24.707Z,46.75
2022-11-28T19:01:24.763Z,46.90
2022-11-28T19:02:24.739Z,46.90
2022-11-28T19:03:24.703Z,47.01
2022-11-28T19:04:24.712Z,46.69
2022-11-28T19:05:24.729Z,46.49
2022-11-28T19:06:24.642Z,46.69
2022-11-28T19:07:24.662Z,46.85
2022-11-28T19:08:24.644Z,46.85
2022-11-28T19:09:24.635Z,46.54
2022-11-28T19:10:24.610Z,47.06
2022-11-28T19:11:24.631Z,46.87
2022-11-28T19:12:24.592Z,46.90
2022-11-28T19:13:24.580Z,47.06
2022-11-28T19:14:24.586Z,46.95
2022-11-28T19:15:24.560Z,46.75
2022-11-28T19:16:24.595Z,46.64
2022-11-28T19:17:24.529Z,46.17
2022-11-28T19:18:24.543Z,45.87
2022-11-28T19:19:24.516Z,45.77
2022-11-28T19:20:24.524Z,45.62
2022-11-28T19:21:24.543Z,45.27
2022-11-28T19:22:24.513Z,44.88
2022-11-28T19:23:24.477Z,44.31
2022-11-28T19:24:24.469Z,44.50
2022-11-28T19:25:24.459Z,44.40
2022-11-28T19:26:24.442Z,44.45
2022-11-28T19:27:24.434Z,44.35
2022-11-28T19:28:24.455Z,44.12
2022-11-28T19:29:24.418Z,44.12
2022-11-28T19:30:24.413Z,44.03
2022-11-28T19:31:24.486Z,44.12
2022-11-28T19:32:24.400Z,44.03
2022-11-28T19:33:24.374Z,43.70
2022-11-28T19:34:24.366Z,43.70
2022-11-28T19:35:24.392Z,43.47
2022-11-28T19:36:24.354Z,43.47
2022-11-28T19:37:24.361Z,43.38
2022-11-28T19:38:24.328Z,43.07
2022-11-28T19:39:24.357Z,42.76
2022-11-28T19:40:24.314Z,42.85
2022-11-28T19:41:24.295Z,42.80
2022-11-28T19:42:24.293Z,42.71
2022-11-28T19:43:24.299Z,42.41
2022-11-28T19:44:24.296Z,42.50
2022-11-28T19:45:24.257Z,42.24
2022-11-28T19:46:24.258Z,41.77
2022-11-28T19:47:24.250Z,41.56
2022-11-28T19:48:24.230Z,41.48
2022-11-28T19:49:24.232Z,41.52
2022-11-28T19:50:24.227Z,41.44
2022-11-28T19:51:24.217Z,41.69
2022-11-28T19:52:24.215Z,42.07
2022-11-28T19:53:24.179Z,42.28
2022-11-28T19:54:24.242Z,42.50
2022-11-28T19:55:24.175Z,42.76
2022-11-28T19:56:24.161Z,42.98
2022-11-28T19:57:24.143Z,43.25
2022-11-28T19:58:24.134Z,43.29
2022-11-28T19:59:24.129Z,43.52
2022-11-28T20:00:24.140Z,43.61
2022-11-28T20:01:24.242Z,43.84
2022-11-28T20:02:24.145Z,44.17
2022-11-28T20:03:24.096Z,44.07
2022-11-28T20:04:24.094Z,43.93
2022-11-28T20:05:24.097Z,44.26
2022-11-28T20:06:24.053Z,44.31
2022-11-28T20:07:24.078Z,44.31
2022-11-28T20:08:24.037Z,44.03
2022-11-28T20:09:24.029Z,43.84
2022-11-28T20:10:24.018Z,43.98
2022-11-28T20:11:24.024Z,43.98
2022-11-28T20:12:23.999Z,43.93
2022-11-28T20:13:24.000Z,43.89
2022-11-28T20:14:23.980Z,43.47
2022-11-28T20:15:23.996Z,43.29
2022-11-28T20:16:23.975Z,43.61
2022-11-28T20:17:23.958Z,43.61
2022-11-28T20:18:23.942Z,43.61
2022-11-28T20:19:23.974Z,43.61
2022-11-28T20:20:23.939Z,43.98
2022-11-28T20:21:23.916Z,43.84
2022-11-28T20:22:23.898Z,44.03
2022-11-28T20:23:23.901Z,44.21
2022-11-28T20:24:23.877Z,44.40
2022-11-28T20:25:23.889Z,44.69
2022-11-28T20:26:23.860Z,44.83
2022-11-28T20:27:23.865Z,45.12
2022-11-28T20:28:23.842Z,45.32
2022-11-28T20:29:23.828Z,45.32
2022-11-28T20:30:23.865Z,45.42
2022-11-28T20:31:23.949Z,45.42
2022-11-28T20:32:23.824Z,45.52
2022-11-28T20:33:23.825Z,45.77
2022-11-28T20:34:23.796Z,45.47
2022-11-28T20:35:23.813Z,45.42
2022-11-28T20:36:23.789Z,45.42
2022-11-28T20:37:23.756Z,45.42
2022-11-28T20:38:23.745Z,45.37
2022-11-28T20:39:23.748Z,45.17
2022-11-28T20:40:23.729Z,45.17
2022-11-28T20:41:23.718Z,45.12
2022-11-28T20:42:23.725Z,45.17
2022-11-28T20:43:23.696Z,45.47
2022-11-28T20:44:23.681Z,45.12
2022-11-28T20:45:23.680Z,45.27
2022-11-28T20:46:23.672Z,44.98
2022-11-28T20:47:23.671Z,44.98
2022-11-28T20:48:23.652Z,44.74
2022-11-28T20:49:23.666Z,44.69
2022-11-28T20:50:23.640Z,44.69
2022-11-28T20:51:23.620Z,44.69
2022-11-28T20:52:23.613Z,44.64
2022-11-28T20:53:26.794Z,44.74
2022-11-28T20:54:23.602Z,44.83
2022-11-28T20:55:23.578Z,45.07
2022-11-28T20:56:23.579Z,45.03
2022-11-28T20:57:23.558Z,45.17
2022-11-28T20:58:23.552Z,45.07
2022-11-28T20:59:23.561Z,45.17
2022-11-28T21:00:26.579Z,44.98
2022-11-28T21:01:23.652Z,45.27
2022-11-28T21:02:23.593Z,45.12
2022-11-28T21:03:23.509Z,45.22
2022-11-28T21:04:23.488Z,45.62
2022-11-28T21:05:23.497Z,45.72
2022-11-28T21:06:23.497Z,45.57
2022-11-28T21:07:23.490Z,45.67
2022-11-28T21:08:23.461Z,45.82
2022-11-28T21:09:23.473Z,45.72
2022-11-28T21:10:23.429Z,45.62
2022-11-28T21:11:50.587Z,45.97
2022-11-28T21:12:23.424Z,46.12
2022-11-28T21:13:23.414Z,46.33
2022-11-28T21:14:23.631Z,46.49
2022-11-28T21:15:23.383Z,46.69
2022-11-28T21:16:23.401Z,46.69
2022-11-28T21:17:23.393Z,46.75
2022-11-28T21:18:23.367Z,46.59